createdAt,value
2022-08-08T00:00:00.000Z,3.18
2022-08-08T00:15:00.000Z,3.25
2022-08-08T00:30:00.000Z,3.27
2022-08-08T00:45:00.000Z,3.29
2022-08-08T01:00:00.000Z,3.46
2022-08-08T01:15:00.000Z,3.89
2022-08-08T01:30:00.000Z,4.51
2022-08-08T01:45:00.000Z,5.07
2022-08-08T02:00:00.000Z,5.27
2022-08-08T02:15:00.000Z,5.6
2022-08-08T02:30:00.000Z,5.38
2022-08-08T02:45:00.000Z,5.29
2022-08-08T03:00:00.000Z,5.94
2022-08-08T03:15:00.000Z,5.2
2022-08-08T03:30:00.000Z,5.39
2022-08-08T03:45:00.000Z,5.36
2022-08-08T04:00:00.000Z,6.24
2022-08-08T04:15:00.000Z,7.16
2022-08-08T04:30:00.000Z,7.45
2022-08-08T04:45:00.000Z,7.65
2022-08-08T05:00:00.000Z,8.08
2022-08-08T05:15:00.000Z,8.98
2022-08-08T05:30:00.000Z,9
2022-08-08T05:45:00.000Z,8.71
2022-08-08T06:00:00.000Z,9
2022-08-08T06:15:00.000Z,10.46
2022-08-08T06:30:00.000Z,12.39
2022-08-08T06:45:00.000Z,13.42
2022-08-08T07:00:00.000Z,13.35
2022-08-08T07:15:00.000Z,13.53
2022-08-08T07:30:00.000Z,11.74
2022-08-08T07:45:00.000Z,10.96
2022-08-08T08:00:00.000Z,10.53
2022-08-08T08:15:00.000Z,10.89
2022-08-08T08:30:00.000Z,10.46
2022-08-08T08:45:00.000Z,8.88
2022-08-08T09:00:00.000Z,7.6
2022-08-08T09:15:00.000Z,6.35
2022-08-08T09:30:00.000Z,3.54
2022-08-08T09:45:00.000Z,2.66
2022-08-08T10:00:00.000Z,1.94
2022-08-08T10:15:00.000Z,2.19
2022-08-08T10:30:00.000Z,2.11
2022-08-08T10:45:00.000Z,1.67
2022-08-08T11:00:00.000Z,1.94
2022-08-08T11:15:00.000Z,2.32
2022-08-08T11:30:00.000Z,2.79
2022-08-08T11:45:00.000Z,3.08
2022-08-08T12:00:00.000Z,2.86
2022-08-08T12:15:00.000Z,2.87
2022-08-08T12:30:00.000Z,3.02
2022-08-08T12:45:00.000Z,2.99
2022-08-08T13:00:00.000Z,2.78
2022-08-08T13:15:00.000Z,3.27
2022-08-08T13:30:00.000Z,3.09
2022-08-08T13:45:00.000Z,3.32
2022-08-08T14:00:00.000Z,3.12
2022-08-08T14:15:00.000Z,3.06
2022-08-08T14:30:00.000Z,3.02
2022-08-08T14:45:00.000Z,3.08
2022-08-08T15:00:00.000Z,3.04
2022-08-08T15:15:00.000Z,3.11
2022-08-08T15:30:00.000Z,2.96
2022-08-08T15:45:00.000Z,2.29
2022-08-08T16:00:00.000Z,2.84
2022-08-08T16:15:00.000Z,2.55
2022-08-08T16:30:00.000Z,2.58
2022-08-08T16:45:00.000Z,1.91
2022-08-08T17:00:00.000Z,2.28
2022-08-08T17:15:00.000Z,1.85
2022-08-08T17:30:00.000Z,2.46
2022-08-08T17:45:00.000Z,2.46
2022-08-08T18:00:00.000Z,2.76
2022-08-08T18:15:00.000Z,2.54
2022-08-08T18:30:00.000Z,2.8
2022-08-08T18:45:00.000Z,3.22
2022-08-08T19:00:00.000Z,2.95
2022-08-08T19:15:00.000Z,3.11
2022-08-08T19:30:00.000Z,3.22
2022-08-08T19:45:00.000Z,3.16
2022-08-08T20:00:00.000Z,3.33
2022-08-08T20:15:00.000Z,3.52
2022-08-08T20:30:00.000Z,3.47
2022-08-08T20:45:00.000Z,4.04
2022-08-08T21:00:00.000Z,3.92
2022-08-08T21:15:00.000Z,3.96
2022-08-08T21:30:00.000Z,4.94
2022-08-08T21:45:00.000Z,3.82
2022-08-08T22:00:00.000Z,4.39
2022-08-08T22:15:00.000Z,4.81
2022-08-08T22:30:00.000Z,4.46
2022-08-08T22:45:00.000Z,4.75
2022-08-08T23:15:00.000Z,4
2022-08-08T23:15:00.000Z,4.42
2022-08-08T23:30:00.000Z,5.06
2022-08-08T23:45:00.000Z,4.67
